EST,Max TemperatureF,Mean TemperatureF,Min TemperatureF,Max Dew PointF,MeanDew PointF,Min DewpointF,Max Humidity, Mean Humidity, Min Humidity, Max Sea Level PressureIn, Mean Sea Level PressureIn, Min Sea Level PressureIn, Max VisibilityMiles, Mean VisibilityMiles, Min VisibilityMiles, Max Wind SpeedMPH, Mean Wind SpeedMPH, Max Gust SpeedMPH,PrecipitationIn, CloudCover, Events, WindDirDegrees
2012-11-1,50,47,44,34,33,32,65,61,56,29.75,29.70,29.66,10,10,10,18,10,23,T,7,Rain,262
2012-11-2,49,41,33,31,30,27,76,61,46,29.95,29.82,29.74,10,10,10,25,12,31,0.00,6,,277
2012-11-3,47,44,41,32,28,26,62,58,53,30.09,30.03,29.96,10,10,10,21,11,28,0.00,8,,303
2012-11-4,49,43,37,29,27,25,64,53,42,30.10,30.07,30.04,10,10,10,16,7,21,0.00,5,,329
2012-11-5,48,38,28,26,25,23,78,59,39,30.19,30.12,30.07,10,10,10,17,7,23,0.00,4,,336
2012-11-6,45,35,24,27,24,21,88,65,41,30.22,30.14,30.04,10,9,6,9,2,16,0.00,1,,67
2012-11-7,42,38,34,26,23,16,70,57,44,30.03,29.97,29.94,10,10,10,13,7,22,0.00,5,,350
2012-11-8,54,45,35,29,17,8,57,37,16,30.11,30.02,29.96,10,10,10,23,11,31,0.00,0,,319
2012-11-9,58,46,33,33,30,27,75,57,38,30.25,30.19,30.11,10,10,6,16,4,28,0.00,0,,304
2012-11-10,64,48,31,36,33,28,85,60,34,30.36,30.30,30.23,10,9,5,9,1,33,0.00,0,,181
2012-11-11,67,52,36,41,37,32,92,65,37,30.46,30.39,30.34,10,7,2,9,1,17,0.00,0,,147
2012-11-12,67,54,41,56,48,38,89,75,61,30.36,30.25,30.11,10,9,2,26,7,31,0.21,3,Rain,183
2012-11-13,48,42,35,41,28,22,83,63,42,30.52,30.40,30.26,10,10,5,18,9,23,0.31,3,Rain,320
2012-11-14,45,37,29,27,25,22,78,62,45,30.58,30.52,30.46,10,10,2,13,4,18,0.00,3,,7
2012-11-15,44,36,27,31,28,24,89,73,57,30.45,30.38,30.33,10,9,6,6,0,,0.00,3,,70
2012-11-16,54,41,28,33,28,25,92,65,38,30.48,30.37,30.32,10,7,2,10,2,14,0.00,0,,355
2012-11-17,55,40,25,31,27,22,85,62,38,30.63,30.57,30.48,10,9,6,10,2,14,0.00,0,,11
2012-11-18,53,40,27,35,31,24,85,65,44,30.64,30.58,30.52,10,9,7,9,3,12,0.00,2,,36
2012-11-19,50,41,31,36,34,29,89,71,52,30.51,30.39,30.25,10,8,1,12,3,14,0.00,4,,11
2012-11-20,49,39,28,37,32,26,96,78,60,30.24,30.18,30.12,10,6,3,5,0,9,0.00,0,,60
2012-11-21,55,41,26,37,28,23,92,61,30,30.26,30.20,30.14,10,4,0,7,1,10,0.00,1,Fog,281
2012-11-22,57,41,25,32,28,23,92,65,38,30.30,30.23,30.14,10,8,5,5,1,8,0.00,0,,127
2012-11-23,65,45,25,43,30,23,92,62,32,30.12,29.93,29.78,10,9,6,29,8,40,0.00,2,,255
2012-11-24,41,37,33,19,17,14,52,46,40,30.06,29.99,29.92,10,10,10,26,13,33,0.00,7,,286
2012-11-25,42,32,22,19,18,16,75,56,36,30.07,30.01,29.92,10,10,9,21,6,29,0.00,2,,245
2012-11-26,54,38,22,29,24,17,84,58,32,30.21,30.14,30.01,10,10,8,10,2,14,0.00,1,,31
2012-11-27,42,38,34,36,33,28,96,80,64,30.28,30.22,30.19,10,6,1,14,6,18,0.25,8,Rain-Snow,355
2012-11-28,45,38,30,27,23,18,75,54,33,30.38,30.30,30.26,10,9,2,21,6,29,0.00,3,,282
2012-11-29,48,37,26,25,21,19,75,53,31,30.45,30.37,30.32,10,10,7,15,4,18,0.00,0,,200
2012-11-30,52,37,22,30,24,19,88,59,30,30.38,30.34,30.29,10,9,5,7,2,10,0.00,0,,80